Pagina principale
METAR-TAF:

METAR-TAF

Aeroporti :

Nassau, Bahamas

Aeroporto Internazionale Lynden Pindling

latitudine: 25-03N, longitudine: 077-28W, altezza: 3 m

Osservazione

Il bollettino è stato emesso 54 minuti fa, alle 19:00 UTC
Vento 9 kt da nord-est
Temperature 28°C
Umidità 62%
Pressione 1018 hPa
Visibilità 10 km o più
Poco nuvoloso ad un'altezza di 2500 ft

METAR: MYNN 221900Z 05009KT 9999 FEW025 28/20 A3006

Ora: 14:54 (19:54 UTC)

Previsione

Il bollettino è stato emesso 3 ore e 34 minuti fa, alle 16:20 UTC
Previsione valida dal 22 alle 18 UTC al 23 alle 18 UTC
Vento 9 kt da est/nord-est
Visibilità 10 km o più
Nubi sparse ad un'altezza di 2500 ft
Nubi sparse ad un'altezza di 22000 ft

TAF: MYNN 221620Z 2218/2318 06009KT 9999 SCT025 SCT220

Osservazioni e previsioni meteorologiche di più di 4000 aeroporti (messaggi METAR e TAF).

Le stazioni disponibili sono rappresentate dai dischi gialli e rossi sulla carta.

Puntare il mouse per vedere il nome della stazione.

Clicca sopra per visualizzare le osservazioni e previsioni meteorologiche.

Per cambiare la mappa : fare clic sui pulsanti verdi con una croce nera per ingrandire, il pulsante verde con un trattino per diminuire, o sulla freccia verde per le mappe adiacenti.


METAR-TAF: